»·PEaware :: ASA644 KPDX-KPHX

ASA644 :: KPDX-KPHX

FLIGHT INFORMATION

Flight Status: Arrived
Operator:
Alaska Airlines
More flights by this operator :: More flights under this callsign
Pilot: Kevin M. (7)
Aircraft: BOEING 737-800
(B738)
More flights by this aircraft type
Origin: KPDX Portland Intl
United States
Destination: KPHX Phoenix Sky Harbor Intl
United States
More flights between these airports :: More routes between these airports
Route: +WHAMY4 KOATA NEERO SLOWN BERYL CORKR TENTS BRUSR1
File this flight plan on PilotEdge
Remarks:
Altitude:
(Current/Filed)
37,000ft
Speed:
(Current/Filed)
470kts
Departed: 09-Aug-18 09:47 AM
Arrived: 09-Aug-18 12:04 PM
Distance/Time
Traveled:
877nm/2:17
Distance/Time
To Go:
Arrived

Flight Plot

Page will automatically refresh every two minutes.

Flight plan parsing failed; only flown route is shown


Map Options




Map Legend


Flown Route
Filed Route
Departure Airport
Arrival Airport
Navaid (VOR, NDB)
Fix

Horizontal Profiles

Position Reports

Time Latitude Longitude Heading Altitude Ground
Speed
09-Aug-18 09:21 45.587793 -122.594867 10 37ft 0kts
09-Aug-18 09:22 45.587793 -122.594867 10 37ft 0kts
09-Aug-18 09:23 45.587793 -122.594867 10 37ft 0kts
09-Aug-18 09:24 45.587793 -122.594867 10 37ft 0kts
09-Aug-18 09:25 45.587793 -122.594867 10 37ft 0kts
09-Aug-18 09:26 45.587793 -122.594867 10 37ft 0kts
09-Aug-18 09:27 45.587793 -122.594867 10 37ft 0kts
09-Aug-18 09:28 45.587793 -122.594867 10 37ft 0kts
09-Aug-18 09:29 45.587793 -122.594867 10 37ft 0kts
09-Aug-18 09:30 45.587793 -122.594867 10 37ft 0kts
09-Aug-18 09:31 45.587793 -122.594867 10 37ft 0kts
09-Aug-18 09:32 45.587793 -122.594867 10 37ft 0kts
09-Aug-18 09:33 45.587793 -122.594867 10 37ft 0kts
09-Aug-18 09:34 45.587793 -122.594867 10 37ft 0kts
09-Aug-18 09:35 45.587792 -122.594867 10 37ft 0kts
09-Aug-18 09:36 45.587793 -122.594867 10 37ft 0kts
09-Aug-18 09:37 45.587793 -122.594867 10 37ft 0kts
09-Aug-18 09:38 45.587793 -122.594867 10 37ft 0kts
09-Aug-18 09:39 45.587793 -122.594867 10 37ft 0kts
09-Aug-18 09:40 45.587675 -122.594908 21 37ft 2kts
09-Aug-18 09:41 45.587280 -122.595331 41 37ft 2kts
09-Aug-18 09:42 45.587221 -122.595777 117 37ft 0kts
09-Aug-18 09:43 45.587221 -122.595777 117 37ft 0kts
09-Aug-18 09:44 45.587221 -122.595777 117 37ft 0kts
09-Aug-18 09:45 45.585549 -122.592463 129 37ft 27kts
09-Aug-18 09:46 45.581532 -122.583569 162 36ft 5kts
09-Aug-18 09:47 45.580946 -122.584983 299 36ft 20kts
09-Aug-18 09:48 45.599221 -122.632460 298 820ft 204kts
09-Aug-18 09:49 45.631374 -122.707462 299 3213ft 248kts
09-Aug-18 09:50 45.666410 -122.797859 289 6098ft 265kts
09-Aug-18 09:51 45.655765 -122.899060 240 9024ft 269kts
09-Aug-18 09:52 45.585282 -122.912963 164 10935ft 313kts
09-Aug-18 09:53 45.516982 -122.823987 115 12045ft 384kts
09-Aug-18 09:54 45.474722 -122.681598 116 14369ft 398kts
09-Aug-18 09:55 45.429595 -122.535453 117 16558ft 411kts
09-Aug-18 09:56 45.382421 -122.384459 117 18569ft 424kts
09-Aug-18 09:57 45.334465 -122.232208 118 20432ft 437kts
09-Aug-18 09:58 45.284001 -122.073108 118 22150ft 449kts
09-Aug-18 09:59 45.222024 -121.919720 132 23737ft 453kts
09-Aug-18 10:00 45.141185 -121.780141 133 25158ft 465kts
09-Aug-18 10:01 45.058262 -121.637425 132 26625ft 472kts
09-Aug-18 10:02 44.974629 -121.493910 131 28069ft 475kts
09-Aug-18 10:03 44.892680 -121.353766 131 29640ft 470kts
09-Aug-18 10:04 44.810550 -121.214029 132 31115ft 467kts
09-Aug-18 10:05 44.727593 -121.073565 132 32201ft 470kts
09-Aug-18 10:06 44.644510 -120.933469 132 33454ft 466kts
09-Aug-18 10:07 44.561742 -120.794496 132 34614ft 463kts
09-Aug-18 10:08 44.479556 -120.657129 132 35653ft 460kts
09-Aug-18 10:09 44.397601 -120.520769 132 36546ft 458kts
09-Aug-18 10:10 44.315422 -120.384671 132 37141ft 459kts
09-Aug-18 10:11 44.234925 -120.252003 132 37145ft 456kts
09-Aug-18 10:12 44.152921 -120.117493 132 37152ft 456kts
09-Aug-18 10:13 44.070548 -119.982980 132 37161ft 456kts
09-Aug-18 10:14 43.988476 -119.849564 132 37162ft 456kts
09-Aug-18 10:15 43.905910 -119.715947 132 37189ft 456kts
09-Aug-18 10:16 43.825176 -119.585888 132 37221ft 456kts
09-Aug-18 10:17 43.742307 -119.452994 132 37221ft 456kts
09-Aug-18 10:18 43.660346 -119.322164 133 37220ft 456kts
09-Aug-18 10:19 43.577404 -119.190462 133 37220ft 456kts
09-Aug-18 10:20 43.494067 -119.058740 133 37219ft 456kts
09-Aug-18 10:21 43.400119 -118.945156 155 37224ft 459kts
09-Aug-18 10:22 43.282248 -118.875930 158 37218ft 462kts
09-Aug-18 10:23 43.163633 -118.807195 157 37219ft 468kts
09-Aug-18 10:24 43.043985 -118.737677 157 37218ft 467kts
09-Aug-18 10:25 42.925568 -118.668867 156 37209ft 458kts
09-Aug-18 10:26 42.809758 -118.601530 155 37205ft 461kts
09-Aug-18 10:27 42.692365 -118.533229 155 37200ft 459kts
09-Aug-18 10:28 42.575556 -118.465262 155 37200ft 460kts
09-Aug-18 10:29 42.458086 -118.396899 155 37199ft 459kts
09-Aug-18 10:30 42.364645 -118.342507 155 37200ft 460kts
09-Aug-18 10:31 42.251798 -118.276838 155 37201ft 460kts
09-Aug-18 10:32 42.134916 -118.208790 155 37201ft 460kts
09-Aug-18 10:33 42.017693 -118.140526 155 37201ft 460kts
09-Aug-18 10:34 41.900813 -118.072456 155 37200ft 459kts
09-Aug-18 10:35 41.791147 -117.991346 136 37208ft 457kts
09-Aug-18 10:36 41.700806 -117.872078 134 37201ft 457kts
09-Aug-18 10:37 41.610222 -117.753714 135 37201ft 457kts
09-Aug-18 10:38 41.519042 -117.635963 135 37200ft 457kts
09-Aug-18 10:39 41.428003 -117.518377 134 37200ft 457kts
09-Aug-18 10:40 41.337136 -117.400866 134 37199ft 457kts
09-Aug-18 10:41 41.247077 -117.284275 135 37203ft 457kts
09-Aug-18 10:42 41.156179 -117.166444 135 37208ft 457kts
09-Aug-18 10:43 41.065612 -117.048905 134 37210ft 457kts
09-Aug-18 10:44 40.975173 -116.931390 133 37210ft 457kts
09-Aug-18 10:45 40.886760 -116.816315 132 37207ft 461kts
09-Aug-18 10:46 40.795923 -116.697964 132 37207ft 460kts
09-Aug-18 10:47 40.705195 -116.579638 132 37208ft 460kts
09-Aug-18 10:48 40.614475 -116.461205 132 37207ft 460kts
09-Aug-18 10:49 40.523106 -116.346690 136 37219ft 461kts
09-Aug-18 10:50 40.425384 -116.237522 137 37255ft 462kts
09-Aug-18 10:51 40.328377 -116.129442 136 37284ft 462kts
09-Aug-18 10:52 40.230945 -116.020756 136 37283ft 461kts
09-Aug-18 10:53 40.133633 -115.912076 136 37283ft 461kts
09-Aug-18 10:54 40.036309 -115.803259 136 37284ft 461kts
09-Aug-18 10:55 39.939263 -115.694628 136 37283ft 461kts
09-Aug-18 10:56 39.843362 -115.587158 136 37302ft 461kts
09-Aug-18 10:57 39.746382 -115.478357 135 37345ft 461kts
09-Aug-18 10:58 39.649549 -115.369597 135 37353ft 461kts
09-Aug-18 10:59 39.553637 -115.261773 136 37357ft 461kts
09-Aug-18 11:00 39.457031 -115.153032 136 37358ft 462kts
09-Aug-18 11:01 39.359993 -115.043671 136 37357ft 467kts
09-Aug-18 11:02 39.261825 -114.932927 135 37358ft 470kts
09-Aug-18 11:03 39.163994 -114.822449 135 37357ft 469kts
09-Aug-18 11:04 39.066030 -114.711689 135 37357ft 470kts
09-Aug-18 11:05 38.968289 -114.601059 135 37357ft 469kts
09-Aug-18 11:06 38.872089 -114.492059 135 37344ft 469kts
09-Aug-18 11:07 38.774576 -114.381463 135 37345ft 469kts
09-Aug-18 11:08 38.678875 -114.272804 136 37347ft 469kts
09-Aug-18 11:09 38.581492 -114.162121 135 37327ft 469kts
09-Aug-18 11:10 38.484069 -114.051281 135 37274ft 469kts
09-Aug-18 11:11 38.386950 -113.940674 135 37247ft 469kts
09-Aug-18 11:12 38.290000 -113.830153 135 37247ft 469kts
09-Aug-18 11:13 38.192972 -113.719441 135 37257ft 469kts
09-Aug-18 11:14 38.096109 -113.608818 135 37284ft 469kts
09-Aug-18 11:15 37.999460 -113.498351 135 37293ft 469kts
09-Aug-18 11:16 37.901649 -113.389153 143 37280ft 472kts
09-Aug-18 11:17 37.794589 -113.325902 154 37292ft 476kts
09-Aug-18 11:18 37.673272 -113.260666 154 37293ft 476kts
09-Aug-18 11:19 37.551758 -113.194969 154 37293ft 476kts
09-Aug-18 11:20 37.430629 -113.129431 154 37292ft 476kts
09-Aug-18 11:21 37.309605 -113.063929 154 37252ft 475kts
09-Aug-18 11:22 37.188088 -112.998131 154 37257ft 477kts
09-Aug-18 11:23 37.066897 -112.932477 154 37257ft 479kts
09-Aug-18 11:24 36.944252 -112.866018 155 37257ft 481kts
09-Aug-18 11:25 36.826880 -112.802450 156 37255ft 484kts
09-Aug-18 11:26 36.703726 -112.735719 155 37256ft 483kts
09-Aug-18 11:27 36.580668 -112.669017 155 37255ft 483kts
09-Aug-18 11:28 36.457776 -112.602391 155 37259ft 483kts
09-Aug-18 11:29 36.334850 -112.535736 155 37368ft 484kts
09-Aug-18 11:30 36.212107 -112.469176 155 37394ft 484kts
09-Aug-18 11:31 36.087355 -112.408244 169 37406ft 483kts
09-Aug-18 11:32 35.955874 -112.410012 184 37392ft 470kts
09-Aug-18 11:33 35.827414 -112.421871 184 37388ft 472kts
09-Aug-18 11:34 35.697700 -112.433432 184 34696ft 474kts
09-Aug-18 11:35 35.565756 -112.445031 184 30986ft 481kts
09-Aug-18 11:36 35.434528 -112.441918 170 29449ft 484kts
09-Aug-18 11:37 35.301020 -112.415265 170 29378ft 489kts
09-Aug-18 11:38 35.170057 -112.389100 169 29353ft 489kts
09-Aug-18 11:39 35.035994 -112.359777 169 28558ft 500kts
09-Aug-18 11:40 34.908728 -112.332011 171 25556ft 457kts
09-Aug-18 11:41 34.812466 -112.310952 171 24210ft 456kts
09-Aug-18 11:42 34.689148 -112.283737 171 22552ft 446kts
09-Aug-18 11:43 34.568479 -112.257202 170 21203ft 430kts
09-Aug-18 11:44 34.451980 -112.231667 170 19406ft 413kts
09-Aug-18 11:45 34.344550 -112.204488 168 17878ft 380kts
09-Aug-18 11:46 34.261038 -112.182733 168 16678ft 358kts
09-Aug-18 11:47 34.149838 -112.153895 168 15000ft 346kts
09-Aug-18 11:48 34.058567 -112.127961 161 13634ft 329kts
09-Aug-18 11:49 33.974440 -112.092912 161 12413ft 313kts
09-Aug-18 11:50 33.897027 -112.061041 160 11311ft 308kts
09-Aug-18 11:51 33.832889 -112.034825 160 10335ft 301kts
09-Aug-18 11:52 33.742360 -111.997974 160 9015ft 288kts
09-Aug-18 11:53 33.680832 -111.972970 162 8321ft 273kts
09-Aug-18 11:54 33.611195 -111.944751 162 7705ft 256kts
09-Aug-18 11:55 33.539344 -111.907384 126 7008ft 237kts
09-Aug-18 11:56 33.507528 -111.854076 124 7057ft 237kts
09-Aug-18 11:57 33.481027 -111.785457 81 7047ft 236kts
09-Aug-18 11:58 33.511271 -111.702889 86 6488ft 233kts
09-Aug-18 11:59 33.481666 -111.655645 168 6081ft 237kts
09-Aug-18 12:00 33.430795 -111.692625 260 5958ft 243kts
09-Aug-18 12:01 33.441580 -111.772672 268 5026ft 255kts
09-Aug-18 12:02 33.439354 -111.856716 269 3303ft 242kts
09-Aug-18 12:03 33.440819 -111.931063 267 2477ft 195kts
09-Aug-18 12:04 33.440840 -111.989340 270 1195ft 164kts
09-Aug-18 12:05 33.439843 -112.013491 120 1142ft 6kts
09-Aug-18 12:06 33.439776 -112.007899 89 1142ft 32kts
09-Aug-18 12:07 33.435587 -112.004695 181 1142ft 24kts
09-Aug-18 12:08 33.432880 -112.008922 270 1142ft 20kts
09-Aug-18 12:09 33.434314 -112.012998 288 1142ft 6kts
09-Aug-18 12:10 33.434383 -112.013258 286 1142ft 0kts
09-Aug-18 12:11 33.434383 -112.013258 286 1142ft 0kts
09-Aug-18 12:12 33.434383 -112.013258 286 1142ft 0kts
09-Aug-18 12:13 33.434383 -112.013258 286 1142ft 0kts
09-Aug-18 12:14 33.434383 -112.013258 286 1142ft 0kts
09-Aug-18 12:15 33.434383 -112.013258 286 1142ft 0kts

Navigation Log

Ident Type
Flight plan parsing failed, navigation log unavailable